createdAt,value
2018-06-19T00:00:08.773Z,11.60
2018-06-19T00:01:08.706Z,10.90
2018-06-19T00:03:02.001Z,11.30
2018-06-19T00:04:01.920Z,11.80
2018-06-19T00:05:55.303Z,10.90
2018-06-19T00:06:55.135Z,10.20
2018-06-19T00:08:48.432Z,10.90
2018-06-19T00:09:48.350Z,11.00
2018-06-19T00:11:41.647Z,11.10
2018-06-19T00:12:41.565Z,11.30
2018-06-19T00:14:34.841Z,10.30
2018-06-19T00:15:34.779Z,10.30
2018-06-19T00:17:28.076Z,10.40
2018-06-19T00:18:27.992Z,10.40
2018-06-19T00:20:21.270Z,9.70
2018-06-19T00:21:21.208Z,9.50
2018-06-19T00:23:14.504Z,10.00
2018-06-19T00:24:14.422Z,9.60
2018-06-19T00:26:07.804Z,9.00
2018-06-19T00:27:07.638Z,9.50
2018-06-19T00:29:00.935Z,8.90
2018-06-19T00:30:00.851Z,9.00
2018-06-19T00:31:54.145Z,8.90
2018-06-19T00:32:54.070Z,8.80
2018-06-19T00:34:47.343Z,7.90
2018-06-19T00:35:47.279Z,7.60
2018-06-19T00:37:40.567Z,8.00
2018-06-19T00:38:40.484Z,7.30
2018-06-19T00:40:33.762Z,8.20
2018-06-19T00:41:33.697Z,7.70
2018-06-19T00:43:26.996Z,7.40
2018-06-19T00:44:26.910Z,8.10
2018-06-19T00:46:20.185Z,7.80
2018-06-19T00:47:20.125Z,7.60
2018-06-19T00:49:13.526Z,7.90
2018-06-19T00:50:13.342Z,7.40
2018-06-19T00:52:06.633Z,7.10
2018-06-19T00:53:06.553Z,7.00
2018-06-19T00:54:59.933Z,7.00
2018-06-19T00:55:59.765Z,5.90
2018-06-19T00:57:53.052Z,5.40
2018-06-19T00:58:52.969Z,5.80
2018-06-19T01:00:46.248Z,5.40
2018-06-19T01:01:46.185Z,5.50
2018-06-19T01:03:39.482Z,5.00
2018-06-19T01:04:39.399Z,5.40
2018-06-19T01:06:32.786Z,5.00
2018-06-19T01:07:32.614Z,4.50
2018-06-19T01:09:25.908Z,4.80
2018-06-19T01:10:25.828Z,4.40
2018-06-19T01:12:19.121Z,4.60
2018-06-19T01:13:19.040Z,4.70
2018-06-19T01:15:12.316Z,4.60
2018-06-19T01:16:12.254Z,4.90
2018-06-19T01:18:05.586Z,4.60
2018-06-19T01:19:05.461Z,4.90
2018-06-19T01:20:59.342Z,4.50
2018-06-19T01:21:58.678Z,4.80
2018-06-19T01:23:51.984Z,5.30
2018-06-19T01:24:51.906Z,5.30
2018-06-19T01:26:45.183Z,5.70
2018-06-19T01:27:45.116Z,5.30
2018-06-19T01:29:38.415Z,5.20
2018-06-19T01:30:38.329Z,5.30
2018-06-19T01:32:32.211Z,5.20
2018-06-19T01:33:31.544Z,5.40
2018-06-19T01:35:25.690Z,5.10
2018-06-19T01:36:25.608Z,5.10
2018-06-19T01:38:18.953Z,5.10
2018-06-19T01:39:18.824Z,4.90
2018-06-19T01:41:12.207Z,5.30
2018-06-19T01:42:12.038Z,5.10
2018-06-19T01:44:05.359Z,5.50
2018-06-19T01:45:05.273Z,5.40
2018-06-19T01:46:58.655Z,5.00
2018-06-19T01:47:58.490Z,5.00
2018-06-19T01:49:51.786Z,5.50
2018-06-19T01:50:51.704Z,4.90
2018-06-19T01:52:44.979Z,4.80
2018-06-19T01:53:44.920Z,4.80
2018-06-19T01:55:38.317Z,5.10
2018-06-19T01:56:38.130Z,4.80
2018-06-19T01:58:31.536Z,4.90
2018-06-19T01:59:31.342Z,4.80
2018-06-19T02:01:24.615Z,5.20
2018-06-19T02:02:24.552Z,4.60
2018-06-19T02:04:17.953Z,4.40
2018-06-19T02:05:17.766Z,4.30
2018-06-19T02:07:11.044Z,4.00
2018-06-19T02:08:10.983Z,4.20
2018-06-19T02:10:04.360Z,3.90
2018-06-19T02:11:04.274Z,4.50
2018-06-19T02:12:58.157Z,3.90
2018-06-19T02:13:57.511Z,3.60
2018-06-19T02:15:50.806Z,4.20
2018-06-19T02:16:50.723Z,4.20
2018-06-19T02:18:44.019Z,4.10
2018-06-19T02:19:43.937Z,4.10
2018-06-19T02:21:37.218Z,3.60
2018-06-19T02:22:37.149Z,3.70
2018-06-19T02:24:30.452Z,3.70
2018-06-19T02:25:30.366Z,3.60
2018-06-19T02:27:23.645Z,3.90
2018-06-19T02:28:23.584Z,3.70
2018-06-19T02:30:16.881Z,4.20
2018-06-19T02:31:16.803Z,4.10
2018-06-19T02:33:10.076Z,3.50
2018-06-19T02:34:10.012Z,3.80
2018-06-19T02:36:03.313Z,3.70
2018-06-19T02:37:03.230Z,3.40
2018-06-19T02:38:56.563Z,3.40
2018-06-19T02:39:56.440Z,3.80
2018-06-19T02:41:49.737Z,3.40
2018-06-19T02:42:49.656Z,3.50
2018-06-19T02:44:42.954Z,3.90
2018-06-19T02:45:42.872Z,3.60
2018-06-19T02:47:36.136Z,3.80
2018-06-19T02:48:36.076Z,3.60
2018-06-19T02:50:29.480Z,3.90
2018-06-19T02:51:29.287Z,3.80
2018-06-19T02:53:22.565Z,3.80
2018-06-19T02:54:22.502Z,3.90
2018-06-19T02:56:15.803Z,3.60
2018-06-19T02:57:15.715Z,3.60
2018-06-19T02:59:09.015Z,3.60
2018-06-19T03:00:08.963Z,3.60
2018-06-19T03:02:02.331Z,3.40
2018-06-19T03:03:02.144Z,3.40
2018-06-19T03:04:55.443Z,3.60
2018-06-19T03:05:55.357Z,3.60
2018-06-19T03:07:48.627Z,3.50
2018-06-19T03:08:48.564Z,3.60
2018-06-19T03:10:41.964Z,3.60
2018-06-19T03:11:41.777Z,3.30
2018-06-19T03:13:35.057Z,3.30
2018-06-19T03:14:34.991Z,3.90
2018-06-19T03:16:28.288Z,3.20
2018-06-19T03:17:28.204Z,3.00
2018-06-19T03:19:21.501Z,3.40
2018-06-19T03:20:21.419Z,3.30
2018-06-19T03:22:14.820Z,3.70
2018-06-19T03:23:14.630Z,3.80
2018-06-19T03:25:08.033Z,3.30
2018-06-19T03:26:07.846Z,4.00
2018-06-19T03:28:01.231Z,3.50
2018-06-19T03:29:01.065Z,3.60
2018-06-19T03:30:54.465Z,3.60
2018-06-19T03:31:54.277Z,2.80
2018-06-19T03:33:47.659Z,3.50
2018-06-19T03:34:47.495Z,3.20
2018-06-19T03:36:40.785Z,3.40
2018-06-19T03:37:40.708Z,3.50
2018-06-19T03:39:33.986Z,3.20
2018-06-19T03:40:33.925Z,3.70
2018-06-19T03:42:27.215Z,3.80
2018-06-19T03:43:27.132Z,3.50
2018-06-19T03:45:20.408Z,3.70
2018-06-19T03:46:20.347Z,3.90
2018-06-19T03:48:13.746Z,3.20
2018-06-19T03:49:13.566Z,3.20
2018-06-19T03:51:06.944Z,3.40
2018-06-19T03:52:06.778Z,3.40
2018-06-19T03:54:00.074Z,3.60
2018-06-19T03:54:59.993Z,3.50
2018-06-19T03:56:53.354Z,3.60
2018-06-19T03:57:53.272Z,3.20
2018-06-19T03:59:46.548Z,3.70
2018-06-19T04:00:46.487Z,4.10
2018-06-19T04:02:39.787Z,3.70
2018-06-19T04:03:39.701Z,3.60
2018-06-19T04:05:33.084Z,3.70
2018-06-19T04:06:32.921Z,3.50
2018-06-19T04:08:26.210Z,3.70
2018-06-19T04:09:26.123Z,4.00
2018-06-19T04:11:19.399Z,3.30
2018-06-19T04:12:19.342Z,3.10
2018-06-19T04:14:12.633Z,3.60
2018-06-19T04:15:12.552Z,4.30
2018-06-19T04:17:06.005Z,3.60
2018-06-19T04:18:05.767Z,3.40
2018-06-19T04:19:59.649Z,4.00
2018-06-19T04:20:58.983Z,3.70
2018-06-19T04:22:52.276Z,3.50
2018-06-19T04:23:52.195Z,3.50
2018-06-19T04:25:45.473Z,3.80
2018-06-19T04:26:45.415Z,3.80
2018-06-19T04:28:38.706Z,3.70
2018-06-19T04:29:38.626Z,3.30
2018-06-19T04:31:32.007Z,3.30
2018-06-19T04:32:31.840Z,3.50
2018-06-19T04:34:25.243Z,3.50
2018-06-19T04:35:25.057Z,3.40
2018-06-19T04:37:18.333Z,3.40
2018-06-19T04:38:18.272Z,3.30
2018-06-19T04:40:11.569Z,3.80
2018-06-19T04:41:11.488Z,3.40
2018-06-19T04:43:04.790Z,3.20
2018-06-19T04:44:04.704Z,3.40
2018-06-19T04:45:57.980Z,3.20
2018-06-19T04:46:57.915Z,3.70
2018-06-19T04:48:51.215Z,3.30
2018-06-19T04:49:51.278Z,3.50
2018-06-19T04:51:45.017Z,3.60
2018-06-19T04:52:44.348Z,3.50
2018-06-19T04:54:37.644Z,3.60
2018-06-19T04:55:37.562Z,3.50
2018-06-19T04:57:30.831Z,3.60
2018-06-19T04:58:30.773Z,3.30
2018-06-19T05:00:24.175Z,3.80
2018-06-19T05:01:23.999Z,3.50
2018-06-19T05:03:17.356Z,4.00
2018-06-19T05:04:17.274Z,3.90
2018-06-19T05:06:10.549Z,3.60
2018-06-19T05:07:10.491Z,3.70
2018-06-19T05:09:03.784Z,3.70
2018-06-19T05:10:03.705Z,3.70
2018-06-19T05:11:57.084Z,4.30
2018-06-19T05:12:56.971Z,3.90
2018-06-19T05:14:50.214Z,3.80
2018-06-19T05:15:50.133Z,4.60
2018-06-19T05:17:43.515Z,4.30
2018-06-19T05:18:43.340Z,4.30
2018-06-19T05:20:36.638Z,3.70
2018-06-19T05:21:36.557Z,3.60
2018-06-19T05:23:29.834Z,4.20
2018-06-19T05:24:29.773Z,3.60
2018-06-19T05:26:23.070Z,4.10
2018-06-19T05:27:22.989Z,4.60
2018-06-19T05:29:16.287Z,4.00
2018-06-19T05:30:16.209Z,4.00
2018-06-19T05:32:09.479Z,4.20
2018-06-19T05:33:09.418Z,4.20
2018-06-19T05:35:02.734Z,4.40
2018-06-19T05:36:02.635Z,3.80
2018-06-19T05:37:55.914Z,4.00
2018-06-19T05:38:55.852Z,4.10
2018-06-19T05:40:49.254Z,3.90
2018-06-19T05:41:49.059Z,3.60
2018-06-19T05:43:42.329Z,3.80
2018-06-19T05:44:42.265Z,3.80
2018-06-19T05:46:35.674Z,4.10
2018-06-19T05:47:35.472Z,4.20
2018-06-19T05:49:28.751Z,3.70
2018-06-19T05:50:28.689Z,4.50
2018-06-19T05:52:22.090Z,4.40
2018-06-19T05:53:21.896Z,4.60
2018-06-19T05:55:15.185Z,4.40
2018-06-19T05:56:15.105Z,4.90
2018-06-19T05:58:08.372Z,4.40
2018-06-19T05:59:08.309Z,4.80
2018-06-19T06:01:01.711Z,4.70
2018-06-19T06:02:01.530Z,4.30
2018-06-19T06:03:54.805Z,5.30
2018-06-19T06:04:54.744Z,5.10
2018-06-19T06:06:48.041Z,4.90
2018-06-19T06:07:47.959Z,5.30
2018-06-19T06:09:41.227Z,4.90
2018-06-19T06:10:41.167Z,4.80
2018-06-19T06:12:34.463Z,4.90
2018-06-19T06:13:34.382Z,4.90
2018-06-19T06:15:27.733Z,5.10
2018-06-19T06:16:27.629Z,5.30
2018-06-19T06:18:20.940Z,5.40
2018-06-19T06:19:20.807Z,5.00
2018-06-19T06:21:14.104Z,5.60
2018-06-19T06:22:14.025Z,5.40
2018-06-19T06:24:07.335Z,5.40
2018-06-19T06:25:07.273Z,5.40
2018-06-19T06:27:00.576Z,6.70
2018-06-19T06:28:00.491Z,6.30
2018-06-19T06:29:53.769Z,5.90
2018-06-19T06:30:53.707Z,6.50
2018-06-19T06:32:47.005Z,6.30
2018-06-19T06:33:46.924Z,7.10
2018-06-19T06:35:40.225Z,6.20
2018-06-19T06:36:40.138Z,6.00
2018-06-19T06:38:33.396Z,6.30
2018-06-19T06:39:33.331Z,6.10
2018-06-19T06:41:26.620Z,6.20
2018-06-19T06:42:26.539Z,6.90
2018-06-19T06:44:19.809Z,6.10
2018-06-19T06:45:19.746Z,6.00
2018-06-19T06:47:13.038Z,6.40
2018-06-19T06:48:12.957Z,6.20
2018-06-19T06:50:06.229Z,6.50
2018-06-19T06:51:06.166Z,6.40
2018-06-19T06:52:59.572Z,7.80
2018-06-19T06:53:59.380Z,7.50
2018-06-19T06:55:52.653Z,7.30
2018-06-19T06:56:52.592Z,8.00
2018-06-19T06:58:45.882Z,7.10
2018-06-19T06:59:45.803Z,6.50
2018-06-19T07:01:39.092Z,7.10
2018-06-19T07:02:39.013Z,7.10
2018-06-19T07:04:32.283Z,7.10
2018-06-19T07:05:32.225Z,6.40
2018-06-19T07:07:25.516Z,7.00
2018-06-19T07:08:25.439Z,7.10
2018-06-19T07:10:18.744Z,8.00
2018-06-19T07:11:18.647Z,7.60
2018-06-19T07:13:11.937Z,8.00
2018-06-19T07:14:11.861Z,8.10
2018-06-19T07:16:05.131Z,8.40
2018-06-19T07:17:05.072Z,8.20
2018-06-19T07:18:58.398Z,7.70
2018-06-19T07:19:58.284Z,8.30
2018-06-19T07:21:51.674Z,9.00
2018-06-19T07:22:51.499Z,8.60
2018-06-19T07:24:44.791Z,8.70
2018-06-19T07:25:44.714Z,8.30
2018-06-19T07:27:38.006Z,8.70
2018-06-19T07:28:37.927Z,8.50
2018-06-19T07:30:31.202Z,9.90
2018-06-19T07:31:31.143Z,9.80
2018-06-19T07:33:24.444Z,9.40
2018-06-19T07:34:24.360Z,8.90
2018-06-19T07:36:17.629Z,9.30
2018-06-19T07:37:17.572Z,9.70
2018-06-19T07:39:10.865Z,9.80
2018-06-19T07:40:10.787Z,9.60
2018-06-19T07:42:04.173Z,10.20
2018-06-19T07:43:04.020Z,9.90
2018-06-19T07:44:57.314Z,10.40
2018-06-19T07:45:57.240Z,10.30
2018-06-19T07:47:50.544Z,10.70
2018-06-19T07:48:50.450Z,10.30
2018-06-19T07:50:43.724Z,11.20
2018-06-19T07:51:43.666Z,10.90
2018-06-19T07:53:36.962Z,10.90
2018-06-19T07:54:36.885Z,11.40
2018-06-19T07:56:30.157Z,11.30
2018-06-19T07:57:30.102Z,11.40
2018-06-19T07:59:23.391Z,11.30
2018-06-19T08:00:23.317Z,11.30
2018-06-19T08:02:16.703Z,11.20
2018-06-19T08:03:16.529Z,12.20
2018-06-19T08:05:09.823Z,12.00
2018-06-19T08:06:09.743Z,11.40
2018-06-19T08:08:03.155Z,12.30
2018-06-19T08:09:02.972Z,12.60
2018-06-19T08:10:56.255Z,12.20
2018-06-19T08:11:56.176Z,11.90
2018-06-19T08:13:49.466Z,13.60
2018-06-19T08:14:49.389Z,13.50
2018-06-19T08:16:42.661Z,13.90
2018-06-19T08:17:42.603Z,14.60
2018-06-19T08:19:35.893Z,13.40
2018-06-19T08:20:35.814Z,14.30
2018-06-19T08:22:29.086Z,14.60
2018-06-19T08:23:29.028Z,15.70
2018-06-19T08:25:22.431Z,15.00
2018-06-19T08:26:22.277Z,14.90
2018-06-19T08:28:15.550Z,14.70
2018-06-19T08:29:15.495Z,14.70
2018-06-19T08:31:08.781Z,15.80
2018-06-19T08:32:08.704Z,14.70
2018-06-19T08:34:02.597Z,15.40
2018-06-19T08:35:01.923Z,15.80
2018-06-19T08:36:55.214Z,15.10
2018-06-19T08:37:55.134Z,15.00
2018-06-19T08:39:48.426Z,16.00
2018-06-19T08:40:48.347Z,15.60
2018-06-19T08:42:41.777Z,15.40
2018-06-19T08:43:41.602Z,15.30
2018-06-19T08:45:34.966Z,15.80
2018-06-19T08:46:34.774Z,16.30
2018-06-19T08:48:28.049Z,17.00
2018-06-19T08:49:27.989Z,17.40
2018-06-19T08:51:21.279Z,18.20
2018-06-19T08:52:21.202Z,17.20
2018-06-19T08:54:14.504Z,17.40
2018-06-19T08:55:14.455Z,17.60
2018-06-19T08:57:07.711Z,17.70
2018-06-19T08:58:07.630Z,17.30
2018-06-19T09:00:00.923Z,16.80
2018-06-19T09:01:00.909Z,17.50
2018-06-19T09:02:54.157Z,17.70
2018-06-19T09:03:54.078Z,17.20
2018-06-19T09:05:47.373Z,17.00
2018-06-19T09:06:47.295Z,17.40
2018-06-19T09:08:40.569Z,16.40
2018-06-19T09:09:40.511Z,17.30
2018-06-19T09:11:33.922Z,16.80
2018-06-19T09:12:33.728Z,17.60
2018-06-19T09:14:27.005Z,17.50
2018-06-19T09:15:26.949Z,16.80
2018-06-19T09:17:20.245Z,18.90
2018-06-19T09:18:20.163Z,16.70
2018-06-19T09:20:13.565Z,17.00
2018-06-19T09:21:13.381Z,17.50
2018-06-19T09:23:06.787Z,18.70
2018-06-19T09:24:06.599Z,18.40
2018-06-19T09:26:00.047Z,18.00
2018-06-19T09:26:59.816Z,18.30
2018-06-19T09:28:53.091Z,18.20
2018-06-19T09:29:53.034Z,18.00
2018-06-19T09:31:46.358Z,18.60
2018-06-19T09:32:46.280Z,18.50
2018-06-19T09:34:39.555Z,19.70
2018-06-19T09:35:39.496Z,18.80
2018-06-19T09:37:32.901Z,19.20
2018-06-19T09:38:32.714Z,20.10
2018-06-19T09:40:25.995Z,19.20
2018-06-19T09:41:25.936Z,18.80
2018-06-19T09:43:19.226Z,20.90
2018-06-19T09:44:19.148Z,20.40
2018-06-19T09:46:12.423Z,19.10
2018-06-19T09:47:12.365Z,19.30
2018-06-19T09:49:05.770Z,20.00
2018-06-19T09:50:05.580Z,21.00
2018-06-19T09:51:58.915Z,19.60
2018-06-19T09:52:58.794Z,19.10
2018-06-19T09:54:52.070Z,18.70
2018-06-19T09:55:52.015Z,20.10
2018-06-19T09:57:45.305Z,19.00
2018-06-19T09:58:45.228Z,19.20
2018-06-19T10:00:38.500Z,19.60
2018-06-19T10:01:38.442Z,19.50
2018-06-19T10:03:31.847Z,20.70
2018-06-19T10:04:31.681Z,19.70
2018-06-19T10:06:24.964Z,19.60
2018-06-19T10:07:24.891Z,20.50
2018-06-19T10:09:18.183Z,21.40
2018-06-19T10:10:18.107Z,19.40
2018-06-19T10:12:11.418Z,20.40
2018-06-19T10:13:11.333Z,20.40
2018-06-19T10:15:04.612Z,20.40
2018-06-19T10:16:04.553Z,20.00
2018-06-19T10:17:57.958Z,20.40
2018-06-19T10:18:57.786Z,21.10
2018-06-19T10:20:51.052Z,20.60
2018-06-19T10:21:50.995Z,19.20
2018-06-19T10:23:44.400Z,19.90
2018-06-19T10:24:44.282Z,19.40
2018-06-19T10:26:37.558Z,19.50
2018-06-19T10:27:37.497Z,17.90
2018-06-19T10:29:30.905Z,20.20
2018-06-19T10:30:30.715Z,18.70
2018-06-19T10:32:23.992Z,19.00
2018-06-19T10:33:23.924Z,20.00
2018-06-19T10:35:17.224Z,19.30
2018-06-19T10:36:17.146Z,19.20
2018-06-19T10:38:10.443Z,20.30
2018-06-19T10:39:10.366Z,19.60
2018-06-19T10:41:03.641Z,20.50
2018-06-19T10:42:03.584Z,19.10
2018-06-19T10:43:56.880Z,19.20
2018-06-19T10:44:56.802Z,19.70
2018-06-19T10:46:50.085Z,18.90
2018-06-19T10:47:50.023Z,18.90
2018-06-19T10:49:43.317Z,18.50
2018-06-19T10:50:43.246Z,19.60
2018-06-19T10:52:36.603Z,18.50
2018-06-19T10:53:36.526Z,19.10
2018-06-19T10:55:29.781Z,18.70
2018-06-19T10:56:29.704Z,20.00
2018-06-19T10:58:22.982Z,19.60
2018-06-19T10:59:22.925Z,19.60
2018-06-19T11:01:16.225Z,19.00
2018-06-19T11:02:16.147Z,19.40
2018-06-19T11:04:09.443Z,18.60
2018-06-19T11:05:09.414Z,19.40
2018-06-19T11:07:02.651Z,19.70
2018-06-19T11:08:02.592Z,20.70
2018-06-19T11:09:56.500Z,18.70
2018-06-19T11:10:55.826Z,18.40
2018-06-19T11:12:49.092Z,21.20
2018-06-19T11:13:49.034Z,20.90
2018-06-19T11:15:42.369Z,19.60
2018-06-19T11:16:42.285Z,19.90
2018-06-19T11:18:35.572Z,19.50
2018-06-19T11:19:35.517Z,20.40
2018-06-19T11:21:28.839Z,18.30
2018-06-19T11:22:28.740Z,19.20
2018-06-19T11:24:22.049Z,18.90
2018-06-19T11:25:21.963Z,20.10
2018-06-19T11:27:15.244Z,18.20
2018-06-19T11:28:15.188Z,18.50
2018-06-19T11:30:08.486Z,18.50
2018-06-19T11:31:08.414Z,19.30
2018-06-19T11:33:01.826Z,19.60
2018-06-19T11:34:01.638Z,19.40
2018-06-19T11:35:55.050Z,18.50
2018-06-19T11:36:54.868Z,17.90
2018-06-19T11:38:48.149Z,20.30
2018-06-19T11:39:48.095Z,19.40
2018-06-19T11:41:41.395Z,18.80
2018-06-19T11:42:41.324Z,19.50
2018-06-19T11:44:34.618Z,19.00
2018-06-19T11:45:34.550Z,18.40
2018-06-19T11:47:27.961Z,18.50
2018-06-19T11:48:27.776Z,18.30
2018-06-19T11:50:21.095Z,19.10
2018-06-19T11:51:21.025Z,17.70
2018-06-19T11:53:14.343Z,17.90
2018-06-19T11:54:14.289Z,17.40
2018-06-19T11:56:07.591Z,17.30
2018-06-19T11:57:07.518Z,17.70
2018-06-19T11:59:00.803Z,17.50
2018-06-19T12:00:00.748Z,17.70
2018-06-19T12:01:54.083Z,17.30
2018-06-19T12:02:53.973Z,17.40
2018-06-19T12:04:47.255Z,16.90
2018-06-19T12:05:47.201Z,16.60
2018-06-19T12:07:40.503Z,17.30
2018-06-19T12:08:40.428Z,17.90
2018-06-19T12:10:33.820Z,18.10
2018-06-19T12:11:33.655Z,17.80
2018-06-19T12:13:26.954Z,16.50
2018-06-19T12:14:26.881Z,16.70
2018-06-19T12:16:20.181Z,16.00
2018-06-19T12:17:20.108Z,16.20
2018-06-19T12:19:13.401Z,15.20
2018-06-19T12:20:13.346Z,15.20
2018-06-19T12:22:06.645Z,15.40
2018-06-19T12:23:06.573Z,16.20
2018-06-19T12:24:59.962Z,15.30
2018-06-19T12:25:59.799Z,16.00
2018-06-19T12:27:54.101Z,16.70
2018-06-19T12:28:54.026Z,15.90
2018-06-19T12:30:47.307Z,16.00
2018-06-19T12:31:47.252Z,16.40
2018-06-19T12:33:40.601Z,15.80
2018-06-19T12:34:40.529Z,15.10
2018-06-19T12:36:34.010Z,15.00
2018-06-19T12:37:33.763Z,14.30
2018-06-19T12:39:27.056Z,15.40
2018-06-19T12:40:27.001Z,15.00
2018-06-19T12:42:20.363Z,16.90
2018-06-19T12:43:20.287Z,15.90
2018-06-19T12:45:13.580Z,15.40
2018-06-19T12:46:13.523Z,15.60
2018-06-19T12:48:06.824Z,16.60
2018-06-19T12:49:06.750Z,16.80
2018-06-19T12:51:00.140Z,16.70
2018-06-19T12:51:59.985Z,16.80
2018-06-19T12:53:53.397Z,16.70
2018-06-19T12:54:53.225Z,16.60
2018-06-19T12:56:46.504Z,15.50
2018-06-19T12:57:46.447Z,16.60
2018-06-19T12:59:39.746Z,15.90
2018-06-19T13:00:39.674Z,15.30
2018-06-19T13:02:32.979Z,14.90
2018-06-19T13:03:32.906Z,15.60
2018-06-19T13:05:26.188Z,15.20
2018-06-19T13:06:26.133Z,14.80
2018-06-19T13:08:19.437Z,15.00
2018-06-19T13:09:19.360Z,16.10
2018-06-19T13:11:12.701Z,14.60
2018-06-19T13:12:12.585Z,14.70
2018-06-19T13:14:05.996Z,15.80
2018-06-19T13:15:05.812Z,14.80
2018-06-19T13:16:59.221Z,15.20
2018-06-19T13:17:59.049Z,14.70
2018-06-19T13:19:52.362Z,13.40
2018-06-19T13:20:52.290Z,13.40
2018-06-19T13:22:45.594Z,13.60
2018-06-19T13:23:45.534Z,13.60
2018-06-19T13:25:38.907Z,13.70
2018-06-19T13:26:38.744Z,14.10
2018-06-19T13:28:32.049Z,14.50
2018-06-19T13:29:31.980Z,14.60
2018-06-19T13:31:25.371Z,13.10
2018-06-19T13:32:25.207Z,13.30
2018-06-19T13:34:18.621Z,13.50
2018-06-19T13:35:18.499Z,13.10
2018-06-19T13:37:11.726Z,14.30
2018-06-19T13:38:11.670Z,14.70
2018-06-19T13:40:04.974Z,12.60
2018-06-19T13:41:04.901Z,13.20
2018-06-19T13:42:58.310Z,13.20
2018-06-19T13:43:58.130Z,12.90
2018-06-19T13:45:51.524Z,13.50
2018-06-19T13:46:51.366Z,13.40
2018-06-19T13:48:44.677Z,13.20
2018-06-19T13:49:44.608Z,13.70
2018-06-19T13:51:37.874Z,13.80
2018-06-19T13:52:37.820Z,13.60
2018-06-19T13:54:31.125Z,13.60
2018-06-19T13:55:31.048Z,14.60
2018-06-19T13:57:24.342Z,14.20
2018-06-19T13:58:24.289Z,15.60
2018-06-19T14:00:17.592Z,14.40
2018-06-19T14:01:17.519Z,15.20
2018-06-19T14:03:10.813Z,14.40
2018-06-19T14:04:10.758Z,14.20
2018-06-19T14:06:04.167Z,13.70
2018-06-19T14:07:03.993Z,14.20
2018-06-19T14:08:57.272Z,15.30
2018-06-19T14:09:57.219Z,14.60
2018-06-19T14:11:50.520Z,14.50
2018-06-19T14:12:50.446Z,13.90
2018-06-19T14:14:43.747Z,15.10
2018-06-19T14:15:43.674Z,14.60
2018-06-19T14:17:37.065Z,14.90
2018-06-19T14:18:36.951Z,15.20
2018-06-19T14:20:30.222Z,14.10
2018-06-19T14:21:30.127Z,15.10
2018-06-19T14:23:23.407Z,14.10
2018-06-19T14:24:23.353Z,14.60
2018-06-19T14:26:16.655Z,14.20
2018-06-19T14:27:16.601Z,15.30
2018-06-19T14:29:09.864Z,14.60
2018-06-19T14:30:09.806Z,14.50
2018-06-19T14:32:03.215Z,13.70
2018-06-19T14:33:03.078Z,13.40
2018-06-19T14:34:56.363Z,12.90
2018-06-19T14:35:56.286Z,12.70
2018-06-19T14:37:49.569Z,12.80
2018-06-19T14:38:49.510Z,13.50
2018-06-19T14:40:43.921Z,12.60
2018-06-19T14:41:43.736Z,12.00
2018-06-19T14:43:37.125Z,12.10
2018-06-19T14:44:36.960Z,12.60
2018-06-19T14:46:30.255Z,11.70
2018-06-19T14:47:30.180Z,11.60
2018-06-19T14:49:23.570Z,13.00
2018-06-19T14:50:23.401Z,11.80
2018-06-19T14:52:16.699Z,12.70
2018-06-19T14:53:16.628Z,12.90
2018-06-19T14:55:10.906Z,13.50
2018-06-19T14:56:10.846Z,13.50
2018-06-19T14:58:04.143Z,13.40
2018-06-19T14:59:04.067Z,13.60
2018-06-19T15:00:57.473Z,13.40
2018-06-19T15:01:57.284Z,13.80
2018-06-19T15:03:50.677Z,14.60
2018-06-19T15:04:50.504Z,14.60
2018-06-19T15:06:43.812Z,13.80
2018-06-19T15:07:43.732Z,13.40
2018-06-19T15:09:37.010Z,14.30
2018-06-19T15:10:36.987Z,13.80
2018-06-19T15:12:30.244Z,14.30
2018-06-19T15:13:30.167Z,15.10
2018-06-19T15:15:23.555Z,14.00
2018-06-19T15:16:23.385Z,14.60
2018-06-19T15:18:16.686Z,12.80
2018-06-19T15:19:16.607Z,13.80
2018-06-19T15:21:09.901Z,14.80
2018-06-19T15:22:09.825Z,14.40
2018-06-19T15:24:03.104Z,13.60
2018-06-19T15:25:03.047Z,13.20
2018-06-19T15:26:56.408Z,14.60
2018-06-19T15:27:56.286Z,13.90
2018-06-19T15:29:49.563Z,13.40
2018-06-19T15:30:49.509Z,12.80
2018-06-19T15:32:42.807Z,13.50
2018-06-19T15:33:42.729Z,12.50
2018-06-19T15:35:36.007Z,12.70
2018-06-19T15:36:35.960Z,12.60
2018-06-19T15:38:29.254Z,11.60
2018-06-19T15:39:29.175Z,11.60
2018-06-19T15:41:22.566Z,11.80
2018-06-19T15:42:22.397Z,11.00
2018-06-19T15:44:15.729Z,10.80
2018-06-19T15:45:15.616Z,10.30
2018-06-19T15:47:08.927Z,10.50
2018-06-19T15:48:08.851Z,10.90
2018-06-19T15:50:02.129Z,10.20
2018-06-19T15:51:02.080Z,9.90
2018-06-19T15:52:55.373Z,10.40
2018-06-19T15:53:55.294Z,10.70
2018-06-19T15:55:49.571Z,10.20
2018-06-19T15:56:49.515Z,9.50
2018-06-19T15:58:42.813Z,10.60
2018-06-19T15:59:42.734Z,10.50
2018-06-19T16:01:36.121Z,10.20
2018-06-19T16:02:35.954Z,10.90
2018-06-19T16:04:30.252Z,10.50
2018-06-19T16:05:30.175Z,11.00
2018-06-19T16:07:23.474Z,10.60
2018-06-19T16:08:23.401Z,10.40
2018-06-19T16:10:16.678Z,10.10
2018-06-19T16:11:16.622Z,10.50
2018-06-19T16:13:09.915Z,10.40
2018-06-19T16:14:09.846Z,10.70
2018-06-19T16:16:03.231Z,10.70
2018-06-19T16:17:03.062Z,10.10
2018-06-19T16:18:56.363Z,10.60
2018-06-19T16:19:56.288Z,11.60
2018-06-19T16:21:49.569Z,12.00
2018-06-19T16:22:49.513Z,10.60
2018-06-19T16:24:42.809Z,11.40
2018-06-19T16:25:42.742Z,11.30
2018-06-19T16:27:36.093Z,11.70
2018-06-19T16:28:35.951Z,12.30
2018-06-19T16:30:29.348Z,12.80
2018-06-19T16:31:29.286Z,12.20
2018-06-19T16:33:22.581Z,12.20
2018-06-19T16:34:22.506Z,12.10
2018-06-19T16:36:15.784Z,12.60
2018-06-19T16:37:15.723Z,13.00
2018-06-19T16:39:09.624Z,12.20
2018-06-19T16:40:08.941Z,12.30
2018-06-19T16:42:02.221Z,12.80
2018-06-19T16:43:02.160Z,12.60
2018-06-19T16:44:55.455Z,14.50
2018-06-19T16:45:55.377Z,14.10
2018-06-19T16:47:48.726Z,13.30
2018-06-19T16:48:48.599Z,13.10
2018-06-19T16:50:41.499Z,14.00
2018-06-19T16:51:41.342Z,14.10
2018-06-19T16:53:34.645Z,13.10
2018-06-19T16:54:34.567Z,13.70
2018-06-19T16:56:28.843Z,12.70
2018-06-19T16:57:28.786Z,13.70
2018-06-19T16:59:22.077Z,13.00
2018-06-19T17:00:22.002Z,12.80
2018-06-19T17:02:15.344Z,15.30
2018-06-19T17:03:15.288Z,13.50
2018-06-19T17:05:08.578Z,13.60
2018-06-19T17:06:08.502Z,13.00
2018-06-19T17:08:01.779Z,13.50
2018-06-19T17:09:01.721Z,13.40
2018-06-19T17:10:55.125Z,13.30
2018-06-19T17:11:54.938Z,13.00
2018-06-19T17:13:48.239Z,14.10
2018-06-19T17:14:48.156Z,13.80
2018-06-19T17:16:41.452Z,14.60
2018-06-19T17:17:41.378Z,13.50
2018-06-19T17:19:34.669Z,13.90
2018-06-19T17:20:34.591Z,12.70
2018-06-19T17:22:27.868Z,14.00
2018-06-19T17:23:27.815Z,13.30
2018-06-19T17:25:21.106Z,13.90
2018-06-19T17:26:21.032Z,14.20
2018-06-19T17:28:14.348Z,13.00
2018-06-19T17:29:14.289Z,12.90
2018-06-19T17:31:07.695Z,13.70
2018-06-19T17:32:07.508Z,12.90
2018-06-19T17:34:00.785Z,14.10
2018-06-19T17:35:00.728Z,13.80
2018-06-19T17:36:54.026Z,13.50
2018-06-19T17:37:53.947Z,13.00
2018-06-19T17:39:47.255Z,12.90
2018-06-19T17:40:47.270Z,13.00
2018-06-19T17:42:40.463Z,13.30
2018-06-19T17:43:40.404Z,13.50
2018-06-19T17:45:33.813Z,15.10
2018-06-19T17:46:33.633Z,14.10
2018-06-19T17:48:26.911Z,13.00
2018-06-19T17:49:26.853Z,13.80
2018-06-19T17:51:20.296Z,13.30
2018-06-19T17:52:20.196Z,13.60
2018-06-19T17:54:12.883Z,13.60
2018-06-19T17:55:12.825Z,12.30
2018-06-19T17:57:06.735Z,13.00
2018-06-19T17:58:06.045Z,12.30
2018-06-19T17:59:59.395Z,12.00
2018-06-19T18:00:59.285Z,12.40
2018-06-19T18:02:52.692Z,12.60
2018-06-19T18:03:52.501Z,13.00
2018-06-19T18:05:45.826Z,11.80
2018-06-19T18:06:45.746Z,12.20
2018-06-19T18:08:39.132Z,12.40
2018-06-19T18:09:38.973Z,12.40
2018-06-19T18:11:32.266Z,14.80
2018-06-19T18:12:32.190Z,15.90
2018-06-19T18:14:25.464Z,23.20
2018-06-19T18:15:25.476Z,13.50
2018-06-19T18:17:18.714Z,14.20
2018-06-19T18:18:18.671Z,13.50
2018-06-19T18:20:11.906Z,13.30
2018-06-19T18:21:11.856Z,12.90
2018-06-19T18:23:06.157Z,14.60
2018-06-19T18:24:06.081Z,13.40
2018-06-19T18:25:59.467Z,14.60
2018-06-19T18:26:59.311Z,14.60
2018-06-19T18:28:52.614Z,12.80
2018-06-19T18:29:52.537Z,13.40
2018-06-19T18:31:45.940Z,12.60
2018-06-19T18:32:45.763Z,13.70
2018-06-19T18:34:39.024Z,13.40
2018-06-19T18:35:38.973Z,13.40
2018-06-19T18:37:31.771Z,13.80
2018-06-19T18:38:31.695Z,12.90
2018-06-19T18:40:24.967Z,13.50
2018-06-19T18:41:24.908Z,12.80
2018-06-19T18:43:18.222Z,13.30
2018-06-19T18:44:18.133Z,13.70
2018-06-19T18:46:11.517Z,13.40
2018-06-19T18:47:11.360Z,13.00
2018-06-19T18:49:04.661Z,12.60